createdAt,value
2018-06-01T14:52:00.220Z,52.60
2018-06-01T14:54:29.800Z,53.10
2018-06-01T14:56:59.704Z,53.40
2018-06-01T14:59:29.913Z,53.40
2018-06-01T15:01:58.844Z,53.90
2018-06-01T15:04:28.422Z,54.00
2018-06-01T15:06:57.286Z,54.00
2018-06-01T15:09:27.537Z,53.10
2018-06-01T15:11:56.219Z,53.10
2018-06-01T15:14:24.912Z,53.30
2018-06-01T15:16:53.664Z,53.50
2018-06-01T15:19:23.368Z,53.20
2018-06-01T15:21:52.084Z,53.70
2018-06-01T15:24:21.278Z,53.90
2018-06-01T15:26:49.970Z,53.90
2018-06-01T15:29:18.685Z,54.10
2018-06-01T15:31:47.583Z,54.40
2018-06-01T15:34:17.691Z,55.40
2018-06-01T15:36:46.315Z,55.20
2018-06-01T15:39:15.654Z,54.90
2018-06-01T15:41:44.376Z,54.90
2018-06-01T15:44:14.409Z,54.80
2018-06-01T15:46:43.035Z,54.80
2018-06-01T15:49:11.952Z,54.60
2018-06-01T15:51:42.255Z,54.10
2018-06-01T15:54:10.934Z,54.10
2018-06-01T15:56:40.975Z,53.30
2018-06-01T15:59:09.905Z,51.10
2018-06-01T16:01:39.302Z,51.80
2018-06-01T16:04:09.415Z,51.80
2018-06-01T16:06:39.642Z,52.00
2018-06-01T16:09:10.131Z,52.00
2018-06-01T16:11:39.261Z,52.30
2018-06-01T16:14:08.873Z,52.50
2018-06-01T16:16:38.603Z,52.50
2018-06-01T16:19:10.055Z,52.50
2018-06-01T16:21:39.714Z,52.10
2018-06-01T16:24:09.851Z,52.10
2018-06-01T16:26:39.214Z,52.50
2018-06-01T16:29:07.877Z,52.40
2018-06-01T16:31:38.069Z,52.00
2018-06-01T16:34:06.880Z,51.90
2018-06-01T16:36:35.953Z,51.90
2018-06-01T16:39:06.081Z,51.10
2018-06-01T16:41:35.993Z,51.40
2018-06-01T16:44:05.455Z,51.70
2018-06-01T16:46:34.238Z,51.60
2018-06-01T16:49:03.685Z,51.10
2018-06-01T16:51:33.106Z,51.90
2018-06-01T16:54:02.983Z,52.20
2018-06-01T16:56:32.092Z,52.20
2018-06-01T16:59:01.126Z,52.60
2018-06-01T17:01:30.489Z,52.00
2018-06-01T17:03:59.115Z,51.90
2018-06-01T17:06:28.213Z,51.80
2018-06-01T17:08:56.833Z,51.50
2018-06-01T17:11:25.538Z,51.80
2018-06-01T17:13:54.452Z,51.80
2018-06-01T17:16:26.546Z,51.10
2018-06-01T17:18:55.359Z,51.00
2018-06-01T17:21:24.551Z,51.10
2018-06-01T17:23:54.190Z,50.80
2018-06-01T17:26:22.832Z,50.80
2018-06-01T17:28:52.127Z,50.90
2018-06-01T17:31:21.446Z,50.80
2018-06-01T17:33:50.904Z,51.00
2018-06-01T17:36:24.261Z,51.10
2018-06-01T17:39:01.135Z,51.30
2018-06-01T17:55:41.630Z,51.90
2018-06-01T17:58:11.476Z,52.20
2018-06-01T18:00:40.636Z,52.20
2018-06-01T18:03:09.346Z,52.40
2018-06-01T18:05:38.026Z,52.50
2018-06-01T18:08:08.258Z,52.60
2018-06-01T18:10:39.949Z,52.60
2018-06-01T18:13:09.192Z,52.60
2018-06-01T18:15:40.155Z,52.00
2018-06-01T18:18:09.799Z,51.90
2018-06-01T18:20:39.763Z,51.90
2018-06-01T18:23:08.409Z,51.40
2018-06-01T18:25:38.780Z,51.60
2018-06-01T18:28:07.686Z,51.10
2018-06-01T18:30:36.695Z,51.20
2018-06-01T18:33:07.045Z,50.80
2018-06-01T18:35:36.329Z,50.70
2018-06-01T18:38:05.437Z,50.90
2018-06-01T18:40:34.243Z,51.00
2018-06-01T18:43:04.820Z,50.70
2018-06-01T18:45:33.911Z,50.70
2018-06-01T18:48:04.470Z,50.60
2018-06-01T18:50:33.053Z,50.30
2018-06-01T18:53:02.324Z,50.10
2018-06-01T18:55:31.669Z,50.50
2018-06-01T18:58:00.561Z,50.40
2018-06-01T19:00:29.501Z,50.40
2018-06-01T19:02:59.195Z,50.50
2018-06-01T19:05:28.419Z,50.40
2018-06-01T19:07:57.106Z,50.70
2018-06-01T19:10:26.496Z,50.90
2018-06-01T19:12:55.949Z,51.70
2018-06-01T19:15:25.208Z,51.60
2018-06-01T19:17:54.043Z,51.80
2018-06-01T19:20:23.721Z,52.00
2018-06-01T19:22:52.355Z,52.20
2018-06-01T19:25:21.109Z,52.30
2018-06-01T19:27:50.078Z,51.90
2018-06-01T19:30:19.108Z,52.20
2018-06-01T19:32:49.789Z,52.00
2018-06-01T19:35:18.758Z,51.90
2018-06-01T19:37:48.062Z,52.10
2018-06-01T19:40:20.702Z,52.90
2018-06-01T19:42:50.327Z,53.10
2018-06-01T19:45:19.340Z,53.20
2018-06-01T19:47:50.056Z,53.60
2018-06-01T19:50:18.834Z,53.40
2018-06-01T19:52:47.640Z,53.60
2018-06-01T19:55:16.422Z,53.70
2018-06-01T19:57:45.198Z,53.90
2018-06-01T20:00:13.888Z,54.00
2018-06-01T20:02:44.550Z,53.90
2018-06-01T20:05:14.292Z,53.90
2018-06-01T20:07:46.390Z,54.00
2018-06-01T20:10:15.761Z,54.00
2018-06-01T20:12:47.362Z,55.00
2018-06-01T20:15:16.011Z,55.00
2018-06-01T20:17:44.843Z,55.40
2018-06-01T20:20:14.086Z,55.70
2018-06-01T20:22:44.139Z,56.00
2018-06-01T20:25:14.154Z,56.00
2018-06-01T20:27:42.821Z,56.10
2018-06-01T20:30:13.445Z,56.20
2018-06-01T20:32:42.124Z,56.40
2018-06-01T20:35:10.787Z,56.60
2018-06-01T20:37:39.381Z,56.70
2018-06-01T20:40:09.181Z,56.90
2018-06-01T20:42:40.101Z,56.70
2018-06-01T20:45:08.744Z,56.80
2018-06-01T20:47:37.877Z,56.60
